createdAt,value
2019-05-20T00:00:07.438Z,984.65
2019-05-20T00:01:07.438Z,984.66
2019-05-20T00:02:21.671Z,984.64
2019-05-20T00:03:07.444Z,984.59
2019-05-20T00:04:07.436Z,984.63
2019-05-20T00:05:07.439Z,984.63
2019-05-20T00:06:07.577Z,984.64
2019-05-20T00:07:07.440Z,984.60
2019-05-20T00:08:07.447Z,984.60
2019-05-20T00:09:07.445Z,984.58
2019-05-20T00:10:07.432Z,984.57
2019-05-20T00:11:07.519Z,984.58
2019-05-20T00:12:07.434Z,984.55
2019-05-20T00:13:07.434Z,984.54
2019-05-20T00:14:07.431Z,984.52
2019-05-20T00:15:07.431Z,984.53
2019-05-20T00:16:07.436Z,984.52
2019-05-20T00:17:07.428Z,984.54
2019-05-20T00:18:07.431Z,984.53
2019-05-20T00:19:07.429Z,984.47
2019-05-20T00:20:07.430Z,984.50
2019-05-20T00:21:07.424Z,984.51
2019-05-20T00:22:07.431Z,984.53
2019-05-20T00:23:07.438Z,984.50
2019-05-20T00:24:07.423Z,984.54
2019-05-20T00:25:07.425Z,984.58
2019-05-20T00:26:07.427Z,984.50
2019-05-20T00:27:07.423Z,984.48
2019-05-20T00:28:07.441Z,984.45
2019-05-20T00:29:07.423Z,984.49
2019-05-20T00:30:07.425Z,984.51
2019-05-20T00:31:07.421Z,984.46
2019-05-20T00:32:07.420Z,984.49
2019-05-20T00:33:07.423Z,984.47
2019-05-20T00:34:07.419Z,984.49
2019-05-20T00:35:07.421Z,984.40
2019-05-20T00:36:07.418Z,984.48
2019-05-20T00:37:07.417Z,984.38
2019-05-20T00:38:07.425Z,984.34
2019-05-20T00:39:07.416Z,984.35
2019-05-20T00:40:07.424Z,984.31
2019-05-20T00:41:07.416Z,984.30
2019-05-20T00:42:07.414Z,984.33
2019-05-20T00:43:07.423Z,984.28
2019-05-20T00:44:07.439Z,984.27
2019-05-20T00:45:07.414Z,984.18
2019-05-20T00:46:07.413Z,984.20
2019-05-20T00:47:07.410Z,984.16
2019-05-20T00:48:07.420Z,984.17
2019-05-20T00:49:07.416Z,984.13
2019-05-20T00:50:07.412Z,984.11
2019-05-20T00:51:07.409Z,984.10
2019-05-20T00:52:07.409Z,984.07
2019-05-20T00:53:07.413Z,983.98
2019-05-20T00:54:07.410Z,983.94
2019-05-20T00:55:07.407Z,983.86
2019-05-20T00:56:07.406Z,983.84
2019-05-20T00:57:07.403Z,983.76
2019-05-20T00:58:07.411Z,983.59
2019-05-20T00:59:07.409Z,983.56
2019-05-20T01:00:07.406Z,983.39
2019-05-20T01:01:07.402Z,983.27
2019-05-20T01:02:07.410Z,983.05
2019-05-20T01:03:07.428Z,982.97
2019-05-20T01:04:07.410Z,982.90
2019-05-20T01:05:07.401Z,982.79
2019-05-20T01:06:07.402Z,982.68
2019-05-20T01:07:07.402Z,982.66
2019-05-20T01:08:07.399Z,982.55
2019-05-20T01:09:07.401Z,982.49
2019-05-20T01:10:07.403Z,982.45
2019-05-20T01:11:07.397Z,982.44
2019-05-20T01:12:07.398Z,982.43
2019-05-20T01:13:09.984Z,982.43
2019-05-20T01:14:07.398Z,982.44
2019-05-20T01:15:07.399Z,982.42
2019-05-20T01:16:07.394Z,982.47
2019-05-20T01:17:07.394Z,982.44
2019-05-20T01:18:07.410Z,982.41
2019-05-20T01:19:07.405Z,982.35
2019-05-20T01:20:07.403Z,982.27
2019-05-20T01:21:07.391Z,982.31
2019-05-20T01:22:07.391Z,982.33
2019-05-20T01:23:07.392Z,982.38
2019-05-20T01:24:07.400Z,982.45
2019-05-20T01:25:07.391Z,982.52
2019-05-20T01:26:07.388Z,982.60
2019-05-20T01:27:07.392Z,982.66
2019-05-20T01:28:07.390Z,982.71
2019-05-20T01:29:07.401Z,982.70
2019-05-20T01:30:07.385Z,982.72
2019-05-20T01:31:07.410Z,982.77
2019-05-20T01:32:07.386Z,982.73
2019-05-20T01:33:13.727Z,982.72
2019-05-20T01:34:07.385Z,982.67
2019-05-20T01:35:07.386Z,982.55
2019-05-20T01:36:07.384Z,982.47
2019-05-20T01:37:07.380Z,982.38
2019-05-20T01:38:07.385Z,982.36
2019-05-20T01:39:07.383Z,982.32
2019-05-20T01:40:07.384Z,982.33
2019-05-20T01:41:07.384Z,982.30
2019-05-20T01:42:07.379Z,982.28
2019-05-20T01:43:07.380Z,982.28
2019-05-20T01:44:07.380Z,982.28
2019-05-20T01:45:07.388Z,982.25
2019-05-20T01:46:07.429Z,982.27
2019-05-20T01:47:07.378Z,982.34
2019-05-20T01:48:07.376Z,982.42
2019-05-20T01:49:07.381Z,982.45
2019-05-20T01:50:07.381Z,982.50
2019-05-20T01:51:07.374Z,982.48
2019-05-20T01:52:07.371Z,982.40
2019-05-20T01:53:07.389Z,982.34
2019-05-20T01:54:07.372Z,982.30
2019-05-20T01:55:07.378Z,982.20
2019-05-20T01:56:07.371Z,982.17
2019-05-20T01:57:07.370Z,982.02
2019-05-20T01:58:07.369Z,981.93
2019-05-20T01:59:07.370Z,981.84
2019-05-20T02:00:07.380Z,981.72
2019-05-20T02:01:07.367Z,981.59
2019-05-20T02:02:07.374Z,981.56
2019-05-20T02:03:07.373Z,981.47
2019-05-20T02:04:07.366Z,981.45
2019-05-20T02:05:07.377Z,981.48
2019-05-20T02:06:07.366Z,981.59
2019-05-20T02:07:07.369Z,981.68
2019-05-20T02:08:07.369Z,981.76
2019-05-20T02:09:07.380Z,981.84
2019-05-20T02:10:07.388Z,981.88
2019-05-20T02:11:07.373Z,981.96
2019-05-20T02:12:07.367Z,982.11
2019-05-20T02:13:07.361Z,982.19
2019-05-20T02:14:07.362Z,982.25
2019-05-20T02:15:07.363Z,982.35
2019-05-20T02:16:07.365Z,982.45
2019-05-20T02:17:07.358Z,982.53
2019-05-20T02:18:07.359Z,982.61
2019-05-20T02:19:07.370Z,982.70
2019-05-20T02:20:07.363Z,982.77
2019-05-20T02:21:07.362Z,982.85
2019-05-20T02:22:07.370Z,982.89
2019-05-20T02:23:07.357Z,982.90
2019-05-20T02:24:07.354Z,982.98
2019-05-20T02:25:07.353Z,983.09
2019-05-20T02:26:07.356Z,983.15
2019-05-20T02:27:07.353Z,983.27
2019-05-20T02:28:07.353Z,983.42
2019-05-20T02:29:07.355Z,983.49
2019-05-20T02:30:07.351Z,983.56
2019-05-20T02:31:07.356Z,983.62
2019-05-20T02:32:07.351Z,983.58
2019-05-20T02:33:07.356Z,983.54
2019-05-20T02:34:07.367Z,983.60
2019-05-20T02:35:07.350Z,983.58
2019-05-20T02:36:07.364Z,983.54
2019-05-20T02:37:07.348Z,983.48
2019-05-20T02:38:07.347Z,983.53
2019-05-20T02:39:07.346Z,983.54
2019-05-20T02:40:07.346Z,983.46
2019-05-20T02:41:07.344Z,983.49
2019-05-20T02:42:07.349Z,983.40
2019-05-20T02:43:07.451Z,983.33
2019-05-20T02:44:07.343Z,983.29
2019-05-20T02:45:07.343Z,983.22
2019-05-20T02:46:07.344Z,983.07
2019-05-20T02:47:07.344Z,983.02
2019-05-20T02:48:07.348Z,982.91
2019-05-20T02:49:07.342Z,982.83
2019-05-20T02:50:07.341Z,982.85
2019-05-20T02:51:07.420Z,982.81
2019-05-20T02:52:07.346Z,982.83
2019-05-20T02:53:07.338Z,982.76
2019-05-20T02:54:07.344Z,982.78
2019-05-20T02:55:07.338Z,982.72
2019-05-20T02:56:07.340Z,982.66
2019-05-20T02:57:07.347Z,982.67
2019-05-20T02:58:07.335Z,982.65
2019-05-20T02:59:07.339Z,982.72
2019-05-20T03:00:07.330Z,982.73
2019-05-20T03:01:07.338Z,982.68
2019-05-20T03:02:07.346Z,982.64
2019-05-20T03:03:07.332Z,982.67
2019-05-20T03:04:12.059Z,982.63
2019-05-20T03:05:07.330Z,982.60
2019-05-20T03:06:07.331Z,982.58
2019-05-20T03:07:07.337Z,982.56
2019-05-20T03:08:07.331Z,982.57
2019-05-20T03:09:07.364Z,982.54
2019-05-20T03:10:07.327Z,982.48
2019-05-20T03:11:07.329Z,982.43
2019-05-20T03:12:07.339Z,982.30
2019-05-20T03:13:07.325Z,982.22
2019-05-20T03:14:07.326Z,982.22
2019-05-20T03:15:07.329Z,982.18
2019-05-20T03:16:07.327Z,982.21
2019-05-20T03:17:07.349Z,982.22
2019-05-20T03:18:07.330Z,982.33
2019-05-20T03:19:07.322Z,982.32
2019-05-20T03:20:07.323Z,982.38
2019-05-20T03:21:07.322Z,982.34
2019-05-20T03:22:07.327Z,982.35
2019-05-20T03:23:07.327Z,982.31
2019-05-20T03:24:07.322Z,982.26
2019-05-20T03:25:07.321Z,982.18
2019-05-20T03:26:07.324Z,982.15
2019-05-20T03:27:07.325Z,982.06
2019-05-20T03:28:07.324Z,981.99
2019-05-20T03:29:07.318Z,981.98
2019-05-20T03:30:07.337Z,981.96
2019-05-20T03:31:07.317Z,982.00
2019-05-20T03:32:07.314Z,981.98
2019-05-20T03:33:07.325Z,981.99
2019-05-20T03:34:07.328Z,982.04
2019-05-20T03:35:07.356Z,982.01
2019-05-20T03:36:07.319Z,982.00
2019-05-20T03:37:07.317Z,982.00
2019-05-20T03:38:07.323Z,981.99
2019-05-20T03:39:07.320Z,982.00
2019-05-20T03:40:07.310Z,982.00
2019-05-20T03:41:07.313Z,982.05
2019-05-20T03:42:07.309Z,982.14
2019-05-20T03:43:07.313Z,982.25
2019-05-20T03:44:07.308Z,982.36
2019-05-20T03:45:07.312Z,982.44
2019-05-20T03:46:07.311Z,982.63
2019-05-20T03:47:07.307Z,982.73
2019-05-20T03:48:07.317Z,982.87
2019-05-20T03:49:07.305Z,982.97
2019-05-20T03:50:07.321Z,983.10
2019-05-20T03:51:07.304Z,983.11
2019-05-20T03:52:07.303Z,983.17
2019-05-20T03:53:07.314Z,983.17
2019-05-20T03:54:07.302Z,983.18
2019-05-20T03:55:07.303Z,983.18
2019-05-20T03:56:07.328Z,983.15
2019-05-20T03:57:07.307Z,983.15
2019-05-20T03:58:07.311Z,983.09
2019-05-20T03:59:07.304Z,982.97
2019-05-20T04:00:07.298Z,982.91
2019-05-20T04:01:07.298Z,982.87
2019-05-20T04:02:07.298Z,982.92
2019-05-20T04:03:07.323Z,982.88
2019-05-20T04:04:07.304Z,982.92
2019-05-20T04:05:07.300Z,982.95
2019-05-20T04:06:07.386Z,983.01
2019-05-20T04:07:07.294Z,983.10
2019-05-20T04:08:07.307Z,983.14
2019-05-20T04:09:07.301Z,983.26
2019-05-20T04:10:07.299Z,983.33
2019-05-20T04:11:07.293Z,983.43
2019-05-20T04:12:07.291Z,983.47
2019-05-20T04:13:07.296Z,983.47
2019-05-20T04:14:07.304Z,983.58
2019-05-20T04:15:07.304Z,983.65
2019-05-20T04:16:07.291Z,983.64
2019-05-20T04:17:07.288Z,983.65
2019-05-20T04:18:07.293Z,983.68
2019-05-20T04:19:07.298Z,983.67
2019-05-20T04:20:07.288Z,983.66
2019-05-20T04:21:07.293Z,983.64
2019-05-20T04:22:07.291Z,983.73
2019-05-20T04:23:07.286Z,983.74
2019-05-20T04:24:07.297Z,983.81
2019-05-20T04:25:07.296Z,983.76
2019-05-20T04:26:07.285Z,983.84
2019-05-20T04:27:07.285Z,983.98
2019-05-20T04:28:07.285Z,984.07
2019-05-20T04:29:07.301Z,984.14
2019-05-20T04:30:07.283Z,984.24
2019-05-20T04:31:07.280Z,984.34
2019-05-20T04:32:07.278Z,984.23
2019-05-20T04:33:07.282Z,984.22
2019-05-20T04:34:07.288Z,984.21
2019-05-20T04:35:21.220Z,984.12
2019-05-20T04:36:07.287Z,984.09
2019-05-20T04:37:07.277Z,984.01
2019-05-20T04:38:07.281Z,983.95
2019-05-20T04:39:07.285Z,984.01
2019-05-20T04:40:07.276Z,983.83
2019-05-20T04:41:07.281Z,983.73
2019-05-20T04:42:07.397Z,983.59
2019-05-20T04:43:07.285Z,983.52
2019-05-20T04:44:07.343Z,983.36
2019-05-20T04:45:07.287Z,983.25
2019-05-20T04:46:07.272Z,983.15
2019-05-20T04:47:07.274Z,983.07
2019-05-20T04:48:07.272Z,983.03
2019-05-20T04:49:07.270Z,982.92
2019-05-20T04:50:07.273Z,982.89
2019-05-20T04:51:07.269Z,982.95
2019-05-20T04:52:07.268Z,982.90
2019-05-20T04:53:07.275Z,982.89
2019-05-20T04:54:07.274Z,982.86
2019-05-20T04:55:07.291Z,982.84
2019-05-20T04:56:07.267Z,982.84
2019-05-20T04:57:07.264Z,982.82
2019-05-20T04:58:07.267Z,982.80
2019-05-20T04:59:07.307Z,982.79
2019-05-20T05:00:07.271Z,982.74
2019-05-20T05:01:07.268Z,982.65
2019-05-20T05:02:07.264Z,982.61
2019-05-20T05:03:07.262Z,982.52
2019-05-20T05:04:07.261Z,982.41
2019-05-20T05:05:07.270Z,982.40
2019-05-20T05:06:07.268Z,982.32
2019-05-20T05:07:07.265Z,982.29
2019-05-20T05:08:07.265Z,982.25
2019-05-20T05:09:07.266Z,982.15
2019-05-20T05:10:07.278Z,982.05
2019-05-20T05:11:07.259Z,981.92
2019-05-20T05:12:07.258Z,981.83
2019-05-20T05:13:07.256Z,981.88
2019-05-20T05:14:07.260Z,981.93
2019-05-20T05:15:08.069Z,981.91
2019-05-20T05:16:07.263Z,981.96
2019-05-20T05:17:07.256Z,981.96
2019-05-20T05:18:07.253Z,982.05
2019-05-20T05:19:07.254Z,982.11
2019-05-20T05:20:07.251Z,982.11
2019-05-20T05:21:07.254Z,982.15
2019-05-20T05:22:07.253Z,982.05
2019-05-20T05:23:07.252Z,981.87
2019-05-20T05:24:07.268Z,981.80
2019-05-20T05:25:07.249Z,981.80
2019-05-20T05:26:07.256Z,981.72
2019-05-20T05:27:07.251Z,981.65
2019-05-20T05:28:07.247Z,981.71
2019-05-20T05:29:07.246Z,981.68
2019-05-20T05:30:07.247Z,981.60
2019-05-20T05:31:07.256Z,981.63
2019-05-20T05:32:07.245Z,981.77
2019-05-20T05:33:07.246Z,981.62
2019-05-20T05:34:07.244Z,981.59
2019-05-20T05:35:07.244Z,981.61
2019-05-20T05:36:07.255Z,981.69
2019-05-20T05:37:07.248Z,981.77
2019-05-20T05:38:07.251Z,981.72
2019-05-20T05:39:07.245Z,981.55
2019-05-20T05:40:08.195Z,981.45
2019-05-20T05:41:07.249Z,981.14
2019-05-20T05:42:07.240Z,981.09
2019-05-20T05:43:07.239Z,981.06
2019-05-20T05:44:07.238Z,981.17
2019-05-20T05:45:07.240Z,981.08
2019-05-20T05:46:07.239Z,980.88
2019-05-20T05:47:07.239Z,980.79
2019-05-20T05:48:07.243Z,980.85
2019-05-20T05:49:07.240Z,980.69
2019-05-20T05:50:07.237Z,980.75
2019-05-20T05:51:07.242Z,980.59
2019-05-20T05:52:07.232Z,980.27
2019-05-20T05:53:07.230Z,980.09
2019-05-20T05:54:07.237Z,980.43
2019-05-20T05:55:07.237Z,980.49
2019-05-20T05:56:07.234Z,980.60
2019-05-20T05:57:07.231Z,980.72
2019-05-20T05:58:08.800Z,980.60
2019-05-20T05:59:07.231Z,980.38
2019-05-20T06:00:07.230Z,980.41
2019-05-20T06:01:07.234Z,980.49
2019-05-20T06:02:07.239Z,980.51
2019-05-20T06:03:07.235Z,980.51
2019-05-20T06:04:07.226Z,980.47
2019-05-20T06:05:07.229Z,980.45
2019-05-20T06:06:12.614Z,980.61
2019-05-20T06:07:07.227Z,980.58
2019-05-20T06:08:07.226Z,980.34
2019-05-20T06:09:07.225Z,980.26
2019-05-20T06:10:07.231Z,980.22
2019-05-20T06:11:07.236Z,980.26
2019-05-20T06:12:07.264Z,980.27
2019-05-20T06:13:07.225Z,980.02
2019-05-20T06:14:07.220Z,979.99
2019-05-20T06:15:07.225Z,979.91
2019-05-20T06:16:07.228Z,979.90
2019-05-20T06:17:07.221Z,980.15
2019-05-20T06:18:07.220Z,980.30
2019-05-20T06:19:07.222Z,980.24
2019-05-20T06:20:07.221Z,980.22
2019-05-20T06:21:07.228Z,980.36
2019-05-20T06:22:07.216Z,980.69
2019-05-20T06:23:07.225Z,980.95
2019-05-20T06:24:07.215Z,980.84
2019-05-20T06:25:07.216Z,980.98
2019-05-20T06:26:07.232Z,981.25
2019-05-20T06:27:07.215Z,981.26
2019-05-20T06:28:07.218Z,981.37
2019-05-20T06:29:07.219Z,981.68
2019-05-20T06:30:07.215Z,981.92
2019-05-20T06:31:07.219Z,981.70
2019-05-20T06:32:07.209Z,981.27
2019-05-20T06:33:07.209Z,980.87
2019-05-20T06:34:07.219Z,980.64
2019-05-20T06:35:07.210Z,980.75
2019-05-20T06:36:07.216Z,980.50
2019-05-20T06:37:07.211Z,980.57
2019-05-20T06:38:07.212Z,980.55
2019-05-20T06:39:07.208Z,980.45
2019-05-20T06:40:07.206Z,980.47
2019-05-20T06:41:07.221Z,980.80
2019-05-20T06:42:07.209Z,980.99
2019-05-20T06:43:07.204Z,981.20
2019-05-20T06:44:07.224Z,981.27
2019-05-20T06:45:07.205Z,981.18
2019-05-20T06:46:07.221Z,981.29
2019-05-20T06:47:07.214Z,981.48
2019-05-20T06:48:07.203Z,981.67
2019-05-20T06:49:07.202Z,981.67
2019-05-20T06:50:07.201Z,981.75
2019-05-20T06:51:07.203Z,981.61
2019-05-20T06:52:07.208Z,981.65
2019-05-20T06:53:07.199Z,981.79
2019-05-20T06:54:07.198Z,982.16
2019-05-20T06:55:07.200Z,982.31
2019-05-20T06:56:07.198Z,982.14
2019-05-20T06:57:07.205Z,982.15
2019-05-20T06:58:07.194Z,982.23
2019-05-20T06:59:07.213Z,982.25
2019-05-20T07:00:07.220Z,982.25
2019-05-20T07:01:07.196Z,982.40
2019-05-20T07:02:07.196Z,982.40
2019-05-20T07:03:07.196Z,982.51
2019-05-20T07:04:07.193Z,982.70
2019-05-20T07:05:07.193Z,982.95
2019-05-20T07:06:07.198Z,982.99
2019-05-20T07:07:19.991Z,983.04
2019-05-20T07:08:07.192Z,982.95
2019-05-20T07:09:07.190Z,982.71
2019-05-20T07:10:07.184Z,982.62
2019-05-20T07:11:07.205Z,982.59
2019-05-20T07:12:07.194Z,982.59
2019-05-20T07:13:07.191Z,982.17
2019-05-20T07:14:07.195Z,982.24
2019-05-20T07:15:07.188Z,982.32
2019-05-20T07:16:07.195Z,982.45
2019-05-20T07:17:07.190Z,982.60
2019-05-20T07:18:07.185Z,982.44
2019-05-20T07:19:07.185Z,982.64
2019-05-20T07:20:07.184Z,982.63
2019-05-20T07:21:07.189Z,982.50
2019-05-20T07:22:07.190Z,982.42
2019-05-20T07:23:07.191Z,982.34
2019-05-20T07:24:07.179Z,982.48
2019-05-20T07:25:07.204Z,982.44
2019-05-20T07:26:07.177Z,982.37
2019-05-20T07:27:07.185Z,982.20
2019-05-20T07:28:07.182Z,982.29
2019-05-20T07:29:07.179Z,982.19
2019-05-20T07:30:07.183Z,982.34
2019-05-20T07:31:07.180Z,982.29
2019-05-20T07:32:07.179Z,982.25
2019-05-20T07:33:07.184Z,982.26
2019-05-20T07:34:07.182Z,982.35
2019-05-20T07:35:07.178Z,982.12
2019-05-20T07:36:10.031Z,981.87
2019-05-20T07:37:07.179Z,982.06
2019-05-20T07:38:07.174Z,982.21
2019-05-20T07:39:07.172Z,982.21
2019-05-20T07:40:07.173Z,982.15
2019-05-20T07:41:07.174Z,981.63
2019-05-20T07:42:07.176Z,981.44
2019-05-20T07:43:07.171Z,981.25
2019-05-20T07:44:07.170Z,981.15
2019-05-20T07:45:07.170Z,981.20
2019-05-20T07:46:07.171Z,981.37
2019-05-20T07:47:10.284Z,981.70
2019-05-20T07:48:07.166Z,981.50
2019-05-20T07:49:07.175Z,981.52
2019-05-20T07:50:07.167Z,981.80
2019-05-20T07:51:07.173Z,982.02
2019-05-20T07:52:07.176Z,981.94
2019-05-20T07:53:07.163Z,981.72
2019-05-20T07:54:07.184Z,981.71
2019-05-20T07:55:07.168Z,981.56
2019-05-20T07:56:07.163Z,981.26
2019-05-20T07:57:07.167Z,981.25
2019-05-20T07:58:07.165Z,981.38
2019-05-20T07:59:07.162Z,981.16
2019-05-20T08:00:07.161Z,981.11
2019-05-20T08:01:07.174Z,981.07
2019-05-20T08:02:07.168Z,981.02
2019-05-20T08:03:07.162Z,981.30
2019-05-20T08:04:07.158Z,981.34
2019-05-20T08:05:07.179Z,980.76
2019-05-20T08:06:07.158Z,980.15
2019-05-20T08:07:26.233Z,980.28
2019-05-20T08:08:07.165Z,980.79
2019-05-20T08:09:07.158Z,980.79
2019-05-20T08:10:07.155Z,980.34
2019-05-20T08:11:07.153Z,980.25
2019-05-20T08:12:07.160Z,980.65
2019-05-20T08:13:07.153Z,980.88
2019-05-20T08:14:07.156Z,980.74
2019-05-20T08:15:07.155Z,980.63
2019-05-20T08:16:07.151Z,980.67
2019-05-20T08:17:07.157Z,980.87
2019-05-20T08:18:07.169Z,980.77
2019-05-20T08:19:07.151Z,980.55
2019-05-20T08:20:07.153Z,980.57
2019-05-20T08:21:07.152Z,980.23
2019-05-20T08:22:07.157Z,979.76
2019-05-20T08:23:07.151Z,980.13
2019-05-20T08:24:07.152Z,980.59
2019-05-20T08:25:07.148Z,980.97
2019-05-20T08:26:07.145Z,980.91
2019-05-20T08:27:07.157Z,980.64
2019-05-20T08:28:07.144Z,980.54
2019-05-20T08:29:07.145Z,980.15
2019-05-20T08:30:07.144Z,979.64
2019-05-20T08:31:07.144Z,979.23
2019-05-20T08:32:07.160Z,979.36
2019-05-20T08:33:07.146Z,979.35
2019-05-20T08:34:07.154Z,979.32
2019-05-20T08:35:07.142Z,979.78
2019-05-20T08:36:07.142Z,979.84
2019-05-20T08:37:07.141Z,979.69
2019-05-20T08:38:07.142Z,979.66
2019-05-20T08:39:07.145Z,979.46
2019-05-20T08:40:07.139Z,979.08
2019-05-20T08:41:07.143Z,979.20
2019-05-20T08:42:07.142Z,979.45
2019-05-20T08:43:07.149Z,979.64
2019-05-20T08:44:07.139Z,979.58
2019-05-20T08:45:07.169Z,979.47
2019-05-20T08:46:07.140Z,979.40
2019-05-20T08:47:07.139Z,979.43
2019-05-20T08:48:07.138Z,979.82
2019-05-20T08:49:10.862Z,979.74
2019-05-20T08:50:11.040Z,979.80
2019-05-20T08:51:07.132Z,980.06
2019-05-20T08:52:07.138Z,980.31
2019-05-20T08:53:07.142Z,980.00
2019-05-20T08:54:07.133Z,980.53
2019-05-20T08:55:07.133Z,980.33
2019-05-20T08:56:07.140Z,980.47
2019-05-20T08:57:07.142Z,980.58
2019-05-20T08:58:07.133Z,980.59
2019-05-20T08:59:07.127Z,980.94
2019-05-20T09:00:07.142Z,980.85
2019-05-20T09:01:07.887Z,980.97
2019-05-20T09:02:07.130Z,981.29
2019-05-20T09:03:07.142Z,981.81
2019-05-20T09:04:07.201Z,981.55
2019-05-20T09:05:07.128Z,980.99
2019-05-20T09:06:07.134Z,980.98
2019-05-20T09:07:07.126Z,980.62
2019-05-20T09:08:07.134Z,980.38
2019-05-20T09:09:07.123Z,980.74
2019-05-20T09:10:07.119Z,980.96
2019-05-20T09:11:07.132Z,981.14
2019-05-20T09:12:07.127Z,981.40
2019-05-20T09:13:07.136Z,981.70
2019-05-20T09:14:07.126Z,982.09
2019-05-20T09:15:07.124Z,982.10
2019-05-20T09:16:07.121Z,982.06
2019-05-20T09:17:07.121Z,982.17
2019-05-20T09:18:07.135Z,981.93
2019-05-20T09:19:07.121Z,982.02
2019-05-20T09:20:07.135Z,982.27
2019-05-20T09:21:07.156Z,982.16
2019-05-20T09:22:07.129Z,982.18
2019-05-20T09:23:07.140Z,982.10
2019-05-20T09:24:07.123Z,981.57
2019-05-20T09:25:07.248Z,981.33
2019-05-20T09:26:07.119Z,981.42
2019-05-20T09:27:07.126Z,981.34
2019-05-20T09:28:07.141Z,981.65
2019-05-20T09:29:11.078Z,981.73
2019-05-20T09:30:07.126Z,981.57
2019-05-20T09:31:07.111Z,981.82
2019-05-20T09:32:07.116Z,982.34
2019-05-20T09:33:07.125Z,982.53
2019-05-20T09:34:07.149Z,982.18
2019-05-20T09:35:07.122Z,982.42
2019-05-20T09:36:07.118Z,982.51
2019-05-20T09:37:07.146Z,982.86
2019-05-20T09:38:19.477Z,983.11
2019-05-20T09:39:07.142Z,983.30
2019-05-20T09:40:07.111Z,983.49
2019-05-20T09:41:07.107Z,983.49
2019-05-20T09:42:07.107Z,983.34
2019-05-20T09:43:07.110Z,982.74
2019-05-20T09:44:07.156Z,982.83
2019-05-20T09:45:07.104Z,982.83
2019-05-20T09:46:08.365Z,982.52
2019-05-20T09:47:07.102Z,982.41
2019-05-20T09:48:07.109Z,982.58
2019-05-20T09:49:07.102Z,982.81
2019-05-20T09:50:07.109Z,982.84
2019-05-20T09:51:07.103Z,983.15
2019-05-20T09:52:07.112Z,983.06
2019-05-20T09:53:07.797Z,983.01
2019-05-20T09:54:07.108Z,983.14
2019-05-20T09:55:07.105Z,983.30
2019-05-20T09:56:07.103Z,982.98
2019-05-20T09:57:07.100Z,982.60
2019-05-20T09:58:07.101Z,982.48
2019-05-20T09:59:07.103Z,982.75
2019-05-20T10:00:07.109Z,982.69
2019-05-20T10:01:07.099Z,981.89
2019-05-20T10:02:07.101Z,981.48
2019-05-20T10:03:07.754Z,981.36
2019-05-20T10:04:07.095Z,981.24
2019-05-20T10:05:07.099Z,981.54
2019-05-20T10:06:07.109Z,981.61
2019-05-20T10:07:07.095Z,981.13
2019-05-20T10:08:07.110Z,980.95
2019-05-20T10:09:07.105Z,981.12
2019-05-20T10:10:07.093Z,981.06
2019-05-20T10:11:07.091Z,981.24
2019-05-20T10:12:07.111Z,981.53
2019-05-20T10:13:07.904Z,981.87
2019-05-20T10:14:07.088Z,981.80
2019-05-20T10:15:07.096Z,981.96
2019-05-20T10:16:07.087Z,981.89
2019-05-20T10:17:07.086Z,981.64
2019-05-20T10:18:07.088Z,981.86
2019-05-20T10:19:07.083Z,982.08
2019-05-20T10:20:07.093Z,982.04
2019-05-20T10:21:07.090Z,982.19
2019-05-20T10:22:07.094Z,982.00
2019-05-20T10:23:07.140Z,981.39
2019-05-20T10:24:07.086Z,981.59
2019-05-20T10:25:07.085Z,981.45
2019-05-20T10:26:07.082Z,981.73
2019-05-20T10:27:07.086Z,981.47
2019-05-20T10:28:07.086Z,981.73
2019-05-20T10:29:07.096Z,982.02
2019-05-20T10:30:07.142Z,981.96
2019-05-20T10:31:07.078Z,981.29
2019-05-20T10:32:07.076Z,981.35
2019-05-20T10:33:09.354Z,981.64
2019-05-20T10:34:07.090Z,981.89
2019-05-20T10:35:07.119Z,981.91
2019-05-20T10:36:07.076Z,981.93
2019-05-20T10:37:07.077Z,981.60
2019-05-20T10:38:07.075Z,981.60
2019-05-20T10:39:07.856Z,982.02
2019-05-20T10:40:07.087Z,982.06
2019-05-20T10:41:07.077Z,982.45
2019-05-20T10:42:07.076Z,982.39
2019-05-20T10:43:07.072Z,982.07
2019-05-20T10:44:07.071Z,981.42
2019-05-20T10:45:07.078Z,981.39
2019-05-20T10:46:07.070Z,981.03
2019-05-20T10:47:07.076Z,980.67
2019-05-20T10:48:08.888Z,980.63
2019-05-20T10:49:07.077Z,980.76
2019-05-20T10:50:07.077Z,980.91
2019-05-20T10:51:10.221Z,981.20
2019-05-20T10:52:07.070Z,981.06
2019-05-20T10:53:07.079Z,981.85
2019-05-20T10:54:07.067Z,982.31
2019-05-20T10:55:07.346Z,982.43
2019-05-20T10:56:07.120Z,982.53
2019-05-20T10:57:07.066Z,982.78
2019-05-20T10:58:07.065Z,982.82
2019-05-20T10:59:11.602Z,983.10
2019-05-20T11:00:07.064Z,983.18
2019-05-20T11:01:07.124Z,983.42
2019-05-20T11:02:07.063Z,983.30
2019-05-20T11:03:07.073Z,983.41
2019-05-20T11:04:07.061Z,983.70
2019-05-20T11:05:07.060Z,983.88
2019-05-20T11:06:07.120Z,983.76
2019-05-20T11:07:07.062Z,983.80
2019-05-20T11:08:07.063Z,983.96
2019-05-20T11:09:14.179Z,984.18
2019-05-20T11:10:07.147Z,984.42
2019-05-20T11:11:07.067Z,984.72
2019-05-20T11:12:07.060Z,985.07
2019-05-20T11:13:07.056Z,985.53
2019-05-20T11:14:07.059Z,985.78
2019-05-20T11:15:07.075Z,986.03
2019-05-20T11:16:07.083Z,986.18
2019-05-20T11:17:07.055Z,986.11
2019-05-20T11:18:07.055Z,985.86
2019-05-20T11:19:07.054Z,985.90
2019-05-20T11:20:07.054Z,985.97
2019-05-20T11:21:07.052Z,986.13
2019-05-20T11:22:07.053Z,985.99
2019-05-20T11:23:07.060Z,985.89
2019-05-20T11:24:07.051Z,985.74
2019-05-20T11:25:07.049Z,985.61
2019-05-20T11:26:07.051Z,985.61
2019-05-20T11:27:07.058Z,985.47
2019-05-20T11:28:07.047Z,985.52
2019-05-20T11:29:07.051Z,985.46
2019-05-20T11:30:07.048Z,985.47
2019-05-20T11:31:07.047Z,985.44
2019-05-20T11:32:07.054Z,985.31
2019-05-20T11:33:07.044Z,985.27
2019-05-20T11:34:07.044Z,985.35
2019-05-20T11:35:07.048Z,985.32
2019-05-20T11:36:07.044Z,985.20
2019-05-20T11:37:07.057Z,985.19
2019-05-20T11:38:07.043Z,984.91
2019-05-20T11:39:07.417Z,984.76
2019-05-20T11:40:07.183Z,984.58
2019-05-20T11:41:07.048Z,984.73
2019-05-20T11:42:07.042Z,984.79
2019-05-20T11:43:07.040Z,984.48
2019-05-20T11:44:07.038Z,984.51
2019-05-20T11:45:07.039Z,984.18
2019-05-20T11:46:07.042Z,983.77
2019-05-20T11:47:07.047Z,983.25
2019-05-20T11:48:07.041Z,983.38
2019-05-20T11:49:07.042Z,983.33
2019-05-20T11:50:07.039Z,983.23
2019-05-20T11:51:07.044Z,982.93
2019-05-20T11:52:07.043Z,982.84
2019-05-20T11:53:07.039Z,982.62
2019-05-20T11:54:07.037Z,982.53
2019-05-20T11:55:07.033Z,982.49
2019-05-20T11:56:07.031Z,982.28
2019-05-20T11:57:07.074Z,982.60
2019-05-20T11:58:15.958Z,982.37
2019-05-20T11:59:07.031Z,982.03
2019-05-20T12:00:07.030Z,981.95
2019-05-20T12:01:07.031Z,981.94
2019-05-20T12:02:07.034Z,981.74
2019-05-20T12:03:07.032Z,981.64
2019-05-20T12:04:07.027Z,981.48
2019-05-20T12:05:07.033Z,981.77
2019-05-20T12:06:07.130Z,981.70
2019-05-20T12:07:08.676Z,981.51
2019-05-20T12:08:07.036Z,981.55
2019-05-20T12:09:07.023Z,981.84
2019-05-20T12:10:07.027Z,982.09
2019-05-20T12:11:07.027Z,982.18
2019-05-20T12:12:07.025Z,982.03
2019-05-20T12:13:07.038Z,982.07
2019-05-20T12:14:07.023Z,981.73
2019-05-20T12:15:08.493Z,981.83
2019-05-20T12:16:07.020Z,981.83
2019-05-20T12:17:07.021Z,981.79
2019-05-20T12:18:07.036Z,981.93
2019-05-20T12:19:07.025Z,982.00
2019-05-20T12:20:08.017Z,982.13
2019-05-20T12:21:07.025Z,982.32
2019-05-20T12:22:07.023Z,982.19
2019-05-20T12:23:07.028Z,982.13
2019-05-20T12:24:07.039Z,982.36
2019-05-20T12:25:07.016Z,982.31
2019-05-20T12:26:07.120Z,982.61
2019-05-20T12:27:07.014Z,982.74
2019-05-20T12:28:07.023Z,982.84